Aviation Digital Data Service (ADDS)

Output produced by TAFs form (1958 UTC 25 February 2018)
found at http://aviationweather.gov/adds/tafs/
 
METAR text: VYYY 251930Z 24005KT 7000 NSC 25/22 Q1010
Conditions at: VYYY (YANGON INTL MYAN, VN) observed 1930 UTC 25 February 2018
Temperature: 25.0°C (77°F)
Dewpoint: 22.0°C (72°F) [RH = 83%]
Pressure (altimeter): 29.82 inches Hg (1010.0 mb)
Winds: from the WSW (240 degrees) at 6 MPH (5 knots; 2.6 m/s)
Visibility: 4 miles (7 km)
Ceiling: at least 12,000 feet AGL
Clouds: sky clear below 12,000 feet AGL
Weather: no significant weather observed at this time

Forecast for: VYYY (YANGON INTL MYAN, VN)
Text: TAF VYYY 251700Z 2518/2618 25006KT 7000 NSC
Forecast period: 1800 UTC 25 February 2018 to 1800 UTC 26 February 2018
Forecast type: FROM: standard forecast or significant change
Winds: from the WSW (250 degrees) at 7 MPH (6 knots; 3.1 m/s)
Visibility: 4 miles (7 km)
Clouds: not forecast
Weather: no significant weather forecast for this period
Text: TEMPO 2518/2524 6000 HZ
Forecast period: 1800 UTC 25 February 2018 to 0000 UTC 26 February 2018
Forecast type: TEMPORARY: The following changes expected for less than half the time period
Visibility: 4 miles (6 km)
Weather: HZ  (haze)